sensor_id;sensor_type;location;lat;lon;timestamp;P1;durP1;ratioP1;P2;durP2;ratioP2
11500;SDS011;5807;51.606;7.624;2022-12-18T00:03:56;41.93;;;27.80;;
11500;SDS011;5807;51.606;7.624;2022-12-18T00:06:23;47.77;;;29.07;;
11500;SDS011;5807;51.606;7.624;2022-12-18T00:08:52;47.33;;;27.27;;
11500;SDS011;5807;51.606;7.624;2022-12-18T00:11:22;40.97;;;25.57;;
11500;SDS011;5807;51.606;7.624;2022-12-18T00:13:52;45.20;;;27.17;;
11500;SDS011;5807;51.606;7.624;2022-12-18T00:16:21;46.90;;;25.43;;
11500;SDS011;5807;51.606;7.624;2022-12-18T00:18:50;37.53;;;26.30;;
11500;SDS011;5807;51.606;7.624;2022-12-18T00:21:19;40.50;;;25.07;;
11500;SDS011;5807;51.606;7.624;2022-12-18T00:23:47;37.83;;;23.97;;
11500;SDS011;5807;51.606;7.624;2022-12-18T00:26:15;47.23;;;24.67;;
11500;SDS011;5807;51.606;7.624;2022-12-18T00:28:44;37.30;;;24.30;;
11500;SDS011;5807;51.606;7.624;2022-12-18T00:31:13;34.63;;;23.63;;
11500;SDS011;5807;51.606;7.624;2022-12-18T00:33:41;36.20;;;23.43;;
11500;SDS011;5807;51.606;7.624;2022-12-18T00:36:09;36.00;;;24.20;;
11500;SDS011;5807;51.606;7.624;2022-12-18T00:38:38;37.27;;;22.03;;
11500;SDS011;5807;51.606;7.624;2022-12-18T00:41:06;38.93;;;23.20;;
11500;SDS011;5807;51.606;7.624;2022-12-18T00:43:33;40.37;;;23.77;;
11500;SDS011;5807;51.606;7.624;2022-12-18T00:45:59;42.63;;;23.33;;
11500;SDS011;5807;51.606;7.624;2022-12-18T00:48:28;38.67;;;23.17;;
11500;SDS011;5807;51.606;7.624;2022-12-18T00:50:55;39.73;;;23.93;;
11500;SDS011;5807;51.606;7.624;2022-12-18T00:53:22;40.77;;;23.97;;
11500;SDS011;5807;51.606;7.624;2022-12-18T00:55:48;37.07;;;21.70;;
11500;SDS011;5807;51.606;7.624;2022-12-18T00:58:16;47.10;;;23.87;;
11500;SDS011;5807;51.606;7.624;2022-12-18T01:00:43;37.13;;;21.57;;
11500;SDS011;5807;51.606;7.624;2022-12-18T01:03:11;40.47;;;23.10;;
11500;SDS011;5807;51.606;7.624;2022-12-18T01:05:41;32.73;;;21.50;;
11500;SDS011;5807;51.606;7.624;2022-12-18T01:08:08;37.33;;;23.03;;
11500;SDS011;5807;51.606;7.624;2022-12-18T01:10:35;35.27;;;22.80;;
11500;SDS011;5807;51.606;7.624;2022-12-18T01:13:11;39.47;;;24.80;;
11500;SDS011;5807;51.606;7.624;2022-12-18T01:15:38;33.43;;;22.43;;
11500;SDS011;5807;51.606;7.624;2022-12-18T01:18:05;32.67;;;22.53;;
11500;SDS011;5807;51.606;7.624;2022-12-18T01:20:32;49.33;;;27.27;;
11500;SDS011;5807;51.606;7.624;2022-12-18T01:23:00;34.83;;;23.90;;
11500;SDS011;5807;51.606;7.624;2022-12-18T01:25:27;35.93;;;22.27;;
11500;SDS011;5807;51.606;7.624;2022-12-18T01:27:54;43.83;;;24.97;;
11500;SDS011;5807;51.606;7.624;2022-12-18T01:30:21;39.93;;;23.57;;
11500;SDS011;5807;51.606;7.624;2022-12-18T01:32:48;44.63;;;25.93;;
11500;SDS011;5807;51.606;7.624;2022-12-18T01:35:15;36.80;;;23.33;;
11500;SDS011;5807;51.606;7.624;2022-12-18T01:37:42;40.70;;;25.57;;
11500;SDS011;5807;51.606;7.624;2022-12-18T01:40:10;40.67;;;23.37;;
11500;SDS011;5807;51.606;7.624;2022-12-18T01:42:37;38.23;;;22.77;;
11500;SDS011;5807;51.606;7.624;2022-12-18T01:45:05;41.77;;;25.23;;
11500;SDS011;5807;51.606;7.624;2022-12-18T01:47:47;37.53;;;24.53;;
11500;SDS011;5807;51.606;7.624;2022-12-18T01:50:17;41.87;;;23.00;;
11500;SDS011;5807;51.606;7.624;2022-12-18T01:52:46;34.73;;;23.47;;
11500;SDS011;5807;51.606;7.624;2022-12-18T01:55:18;40.20;;;24.40;;
11500;SDS011;5807;51.606;7.624;2022-12-18T01:57:48;39.13;;;24.50;;
11500;SDS011;5807;51.606;7.624;2022-12-18T02:00:18;41.03;;;23.40;;
11500;SDS011;5807;51.606;7.624;2022-12-18T02:02:47;38.07;;;24.73;;
11500;SDS011;5807;51.606;7.624;2022-12-18T02:05:15;38.17;;;22.37;;
11500;SDS011;5807;51.606;7.624;2022-12-18T02:07:47;40.30;;;23.57;;
11500;SDS011;5807;51.606;7.624;2022-12-18T02:10:23;37.80;;;24.60;;
11500;SDS011;5807;51.606;7.624;2022-12-18T02:12:55;36.83;;;21.70;;
11500;SDS011;5807;51.606;7.624;2022-12-18T02:15:29;32.80;;;22.33;;
11500;SDS011;5807;51.606;7.624;2022-12-18T02:18:03;39.67;;;24.30;;
11500;SDS011;5807;51.606;7.624;2022-12-18T02:20:35;42.37;;;24.43;;
11500;SDS011;5807;51.606;7.624;2022-12-18T02:23:06;32.10;;;22.67;;
11500;SDS011;5807;51.606;7.624;2022-12-18T02:28:33;36.30;;;22.53;;
11500;SDS011;5807;51.606;7.624;2022-12-18T02:31:04;35.27;;;23.90;;
11500;SDS011;5807;51.606;7.624;2022-12-18T02:33:34;37.03;;;23.40;;
11500;SDS011;5807;51.606;7.624;2022-12-18T02:36:02;33.20;;;22.43;;
11500;SDS011;5807;51.606;7.624;2022-12-18T02:38:29;35.40;;;22.73;;
11500;SDS011;5807;51.606;7.624;2022-12-18T02:40:57;36.47;;;22.80;;
11500;SDS011;5807;51.606;7.624;2022-12-18T02:43:27;37.87;;;20.83;;
11500;SDS011;5807;51.606;7.624;2022-12-18T02:45:56;30.20;;;21.57;;
11500;SDS011;5807;51.606;7.624;2022-12-18T02:48:24;33.40;;;23.57;;
11500;SDS011;5807;51.606;7.624;2022-12-18T02:50:59;37.33;;;23.37;;
11500;SDS011;5807;51.606;7.624;2022-12-18T02:53:36;28.73;;;20.07;;
11500;SDS011;5807;51.606;7.624;2022-12-18T02:56:09;33.87;;;21.77;;
11500;SDS011;5807;51.606;7.624;2022-12-18T02:58:44;33.67;;;21.83;;
11500;SDS011;5807;51.606;7.624;2022-12-18T03:01:15;31.40;;;19.70;;
11500;SDS011;5807;51.606;7.624;2022-12-18T03:03:46;38.73;;;21.53;;
11500;SDS011;5807;51.606;7.624;2022-12-18T03:06:19;35.07;;;22.03;;
11500;SDS011;5807;51.606;7.624;2022-12-18T03:08:51;38.10;;;22.20;;
11500;SDS011;5807;51.606;7.624;2022-12-18T03:11:22;38.80;;;22.20;;
11500;SDS011;5807;51.606;7.624;2022-12-18T03:14:05;36.07;;;22.13;;
11500;SDS011;5807;51.606;7.624;2022-12-18T03:16:33;30.53;;;20.43;;
11500;SDS011;5807;51.606;7.624;2022-12-18T03:19:03;35.73;;;19.23;;
11500;SDS011;5807;51.606;7.624;2022-12-18T03:21:34;31.43;;;20.20;;
11500;SDS011;5807;51.606;7.624;2022-12-18T03:24:07;37.90;;;20.37;;
11500;SDS011;5807;51.606;7.624;2022-12-18T03:26:35;34.03;;;19.90;;
11500;SDS011;5807;51.606;7.624;2022-12-18T03:29:08;25.53;;;19.27;;
11500;SDS011;5807;51.606;7.624;2022-12-18T03:31:39;30.20;;;20.00;;
11500;SDS011;5807;51.606;7.624;2022-12-18T03:34:09;31.03;;;19.73;;
11500;SDS011;5807;51.606;7.624;2022-12-18T03:36:40;31.67;;;19.70;;
11500;SDS011;5807;51.606;7.624;2022-12-18T03:39:07;32.40;;;21.00;;
11500;SDS011;5807;51.606;7.624;2022-12-18T03:41:35;26.10;;;17.83;;
11500;SDS011;5807;51.606;7.624;2022-12-18T03:44:11;32.30;;;20.37;;
11500;SDS011;5807;51.606;7.624;2022-12-18T03:46:44;30.07;;;19.60;;
11500;SDS011;5807;51.606;7.624;2022-12-18T03:49:20;27.87;;;19.27;;
11500;SDS011;5807;51.606;7.624;2022-12-18T03:51:52;34.87;;;21.53;;
11500;SDS011;5807;51.606;7.624;2022-12-18T03:54:25;35.03;;;21.03;;
11500;SDS011;5807;51.606;7.624;2022-12-18T03:56:55;37.03;;;21.37;;
11500;SDS011;5807;51.606;7.624;2022-12-18T03:59:28;40.67;;;21.37;;
11500;SDS011;5807;51.606;7.624;2022-12-18T04:01:55;33.40;;;19.90;;
11500;SDS011;5807;51.606;7.624;2022-12-18T04:04:25;30.33;;;19.57;;
11500;SDS011;5807;51.606;7.624;2022-12-18T04:06:54;37.47;;;22.43;;
11500;SDS011;5807;51.606;7.624;2022-12-18T04:09:23;31.23;;;19.73;;
11500;SDS011;5807;51.606;7.624;2022-12-18T04:11:51;31.97;;;20.63;;
11500;SDS011;5807;51.606;7.624;2022-12-18T04:14:18;31.23;;;19.60;;
11500;SDS011;5807;51.606;7.624;2022-12-18T04:16:46;27.30;;;17.67;;
11500;SDS011;5807;51.606;7.624;2022-12-18T04:19:13;29.17;;;20.17;;
11500;SDS011;5807;51.606;7.624;2022-12-18T04:21:40;29.80;;;20.50;;
11500;SDS011;5807;51.606;7.624;2022-12-18T04:24:07;27.73;;;17.57;;
11500;SDS011;5807;51.606;7.624;2022-12-18T04:26:34;30.37;;;18.37;;
11500;SDS011;5807;51.606;7.624;2022-12-18T04:29:01;30.27;;;19.17;;
11500;SDS011;5807;51.606;7.624;2022-12-18T04:31:28;32.67;;;17.80;;
11500;SDS011;5807;51.606;7.624;2022-12-18T04:33:57;30.53;;;19.00;;
11500;SDS011;5807;51.606;7.624;2022-12-18T04:36:25;30.30;;;18.40;;
11500;SDS011;5807;51.606;7.624;2022-12-18T04:38:52;28.83;;;18.87;;
11500;SDS011;5807;51.606;7.624;2022-12-18T04:41:19;25.30;;;18.37;;
11500;SDS011;5807;51.606;7.624;2022-12-18T04:43:46;26.67;;;18.27;;
11500;SDS011;5807;51.606;7.624;2022-12-18T04:46:12;29.80;;;18.50;;
11500;SDS011;5807;51.606;7.624;2022-12-18T04:48:40;29.40;;;17.97;;
11500;SDS011;5807;51.606;7.624;2022-12-18T04:51:08;26.47;;;18.97;;
11500;SDS011;5807;51.606;7.624;2022-12-18T04:53:34;31.60;;;18.97;;
11500;SDS011;5807;51.606;7.624;2022-12-18T04:56:02;29.83;;;17.95;;
11500;SDS011;5807;51.606;7.624;2022-12-18T04:58:30;32.60;;;18.03;;
11500;SDS011;5807;51.606;7.624;2022-12-18T05:00:57;27.43;;;17.03;;
11500;SDS011;5807;51.606;7.624;2022-12-18T05:03:24;29.07;;;17.83;;
11500;SDS011;5807;51.606;7.624;2022-12-18T05:05:51;23.30;;;15.13;;
11500;SDS011;5807;51.606;7.624;2022-12-18T05:08:19;33.83;;;17.33;;
11500;SDS011;5807;51.606;7.624;2022-12-18T05:10:46;23.13;;;15.57;;
11500;SDS011;5807;51.606;7.624;2022-12-18T05:13:13;28.33;;;16.77;;
11500;SDS011;5807;51.606;7.624;2022-12-18T05:15:40;22.00;;;17.03;;
11500;SDS011;5807;51.606;7.624;2022-12-18T05:18:07;28.27;;;17.67;;
11500;SDS011;5807;51.606;7.624;2022-12-18T05:20:34;23.77;;;16.50;;
11500;SDS011;5807;51.606;7.624;2022-12-18T05:23:01;30.70;;;16.67;;
11500;SDS011;5807;51.606;7.624;2022-12-18T05:25:29;29.53;;;17.67;;
11500;SDS011;5807;51.606;7.624;2022-12-18T05:27:56;28.80;;;17.27;;
11500;SDS011;5807;51.606;7.624;2022-12-18T05:30:22;25.83;;;18.80;;
11500;SDS011;5807;51.606;7.624;2022-12-18T05:32:49;32.13;;;17.37;;
11500;SDS011;5807;51.606;7.624;2022-12-18T05:35:16;28.67;;;18.47;;
11500;SDS011;5807;51.606;7.624;2022-12-18T05:37:43;25.60;;;16.30;;
11500;SDS011;5807;51.606;7.624;2022-12-18T05:40:10;22.57;;;17.40;;
11500;SDS011;5807;51.606;7.624;2022-12-18T05:42:39;26.07;;;17.83;;
11500;SDS011;5807;51.606;7.624;2022-12-18T05:45:06;26.50;;;17.30;;
11500;SDS011;5807;51.606;7.624;2022-12-18T05:47:33;23.73;;;16.43;;
11500;SDS011;5807;51.606;7.624;2022-12-18T05:50:00;29.77;;;19.43;;
11500;SDS011;5807;51.606;7.624;2022-12-18T05:52:27;27.23;;;16.67;;
11500;SDS011;5807;51.606;7.624;2022-12-18T05:54:53;32.07;;;16.87;;
11500;SDS011;5807;51.606;7.624;2022-12-18T05:57:20;25.77;;;16.47;;
11500;SDS011;5807;51.606;7.624;2022-12-18T05:59:48;24.50;;;16.67;;
11500;SDS011;5807;51.606;7.624;2022-12-18T06:02:15;30.33;;;17.17;;
11500;SDS011;5807;51.606;7.624;2022-12-18T06:04:42;22.47;;;15.93;;
11500;SDS011;5807;51.606;7.624;2022-12-18T06:07:08;29.63;;;16.87;;
11500;SDS011;5807;51.606;7.624;2022-12-18T06:09:35;26.83;;;17.47;;
11500;SDS011;5807;51.606;7.624;2022-12-18T06:12:02;23.83;;;17.67;;
11500;SDS011;5807;51.606;7.624;2022-12-18T06:14:29;30.83;;;17.57;;
11500;SDS011;5807;51.606;7.624;2022-12-18T06:16:57;18.87;;;16.23;;
11500;SDS011;5807;51.606;7.624;2022-12-18T06:19:24;21.67;;;16.33;;
11500;SDS011;5807;51.606;7.624;2022-12-18T06:21:51;26.67;;;14.93;;
11500;SDS011;5807;51.606;7.624;2022-12-18T06:24:18;23.07;;;16.00;;
11500;SDS011;5807;51.606;7.624;2022-12-18T06:26:45;22.70;;;15.20;;
11500;SDS011;5807;51.606;7.624;2022-12-18T06:29:12;22.77;;;14.83;;
11500;SDS011;5807;51.606;7.624;2022-12-18T06:31:38;25.17;;;15.67;;
11500;SDS011;5807;51.606;7.624;2022-12-18T06:34:06;22.60;;;14.93;;
11500;SDS011;5807;51.606;7.624;2022-12-18T06:36:33;22.53;;;14.80;;
11500;SDS011;5807;51.606;7.624;2022-12-18T06:39:00;23.93;;;16.40;;
11500;SDS011;5807;51.606;7.624;2022-12-18T06:41:27;29.90;;;16.93;;
11500;SDS011;5807;51.606;7.624;2022-12-18T06:43:54;20.03;;;15.33;;
11500;SDS011;5807;51.606;7.624;2022-12-18T06:46:20;20.07;;;15.30;;
11500;SDS011;5807;51.606;7.624;2022-12-18T06:48:48;28.90;;;17.13;;
11500;SDS011;5807;51.606;7.624;2022-12-18T06:51:20;29.23;;;17.07;;
11500;SDS011;5807;51.606;7.624;2022-12-18T06:53:48;34.37;;;19.53;;
11500;SDS011;5807;51.606;7.624;2022-12-18T06:56:15;25.37;;;16.93;;
11500;SDS011;5807;51.606;7.624;2022-12-18T06:58:42;27.47;;;18.07;;
11500;SDS011;5807;51.606;7.624;2022-12-18T07:01:10;28.07;;;18.60;;
11500;SDS011;5807;51.606;7.624;2022-12-18T07:03:37;35.67;;;20.63;;
11500;SDS011;5807;51.606;7.624;2022-12-18T07:06:05;27.80;;;16.70;;
11500;SDS011;5807;51.606;7.624;2022-12-18T07:08:33;31.57;;;18.20;;
11500;SDS011;5807;51.606;7.624;2022-12-18T07:11:02;28.60;;;16.87;;
11500;SDS011;5807;51.606;7.624;2022-12-18T07:13:29;18.83;;;15.57;;
11500;SDS011;5807;51.606;7.624;2022-12-18T07:16:02;24.17;;;16.27;;
11500;SDS011;5807;51.606;7.624;2022-12-18T07:18:30;25.70;;;15.80;;
11500;SDS011;5807;51.606;7.624;2022-12-18T07:20:56;26.53;;;17.27;;
11500;SDS011;5807;51.606;7.624;2022-12-18T07:23:23;26.23;;;17.10;;
11500;SDS011;5807;51.606;7.624;2022-12-18T07:25:51;26.70;;;19.47;;
11500;SDS011;5807;51.606;7.624;2022-12-18T07:28:18;35.07;;;18.97;;
11500;SDS011;5807;51.606;7.624;2022-12-18T07:30:45;25.33;;;17.63;;
11500;SDS011;5807;51.606;7.624;2022-12-18T07:33:12;33.97;;;19.13;;
11500;SDS011;5807;51.606;7.624;2022-12-18T07:35:38;28.80;;;19.03;;
11500;SDS011;5807;51.606;7.624;2022-12-18T07:38:05;28.20;;;17.83;;
11500;SDS011;5807;51.606;7.624;2022-12-18T07:40:32;25.10;;;17.87;;
11500;SDS011;5807;51.606;7.624;2022-12-18T07:43:00;28.00;;;18.63;;
11500;SDS011;5807;51.606;7.624;2022-12-18T07:45:27;29.53;;;17.77;;
11500;SDS011;5807;51.606;7.624;2022-12-18T07:47:54;24.73;;;17.77;;
11500;SDS011;5807;51.606;7.624;2022-12-18T07:50:20;27.07;;;17.50;;
11500;SDS011;5807;51.606;7.624;2022-12-18T07:52:49;24.87;;;16.60;;
11500;SDS011;5807;51.606;7.624;2022-12-18T07:55:15;23.47;;;17.17;;
11500;SDS011;5807;51.606;7.624;2022-12-18T07:57:42;24.80;;;16.00;;
11500;SDS011;5807;51.606;7.624;2022-12-18T08:00:11;23.60;;;16.50;;
11500;SDS011;5807;51.606;7.624;2022-12-18T08:02:39;21.43;;;14.83;;
11500;SDS011;5807;51.606;7.624;2022-12-18T08:05:06;18.57;;;13.80;;
11500;SDS011;5807;51.606;7.624;2022-12-18T08:07:33;24.90;;;15.17;;
11500;SDS011;5807;51.606;7.624;2022-12-18T08:09:59;20.47;;;13.47;;
11500;SDS011;5807;51.606;7.624;2022-12-18T08:12:26;23.83;;;13.53;;
11500;SDS011;5807;51.606;7.624;2022-12-18T08:14:53;22.40;;;13.93;;
11500;SDS011;5807;51.606;7.624;2022-12-18T08:17:22;22.03;;;13.80;;
11500;SDS011;5807;51.606;7.624;2022-12-18T08:19:49;16.20;;;12.57;;
11500;SDS011;5807;51.606;7.624;2022-12-18T08:22:16;18.10;;;12.87;;
11500;SDS011;5807;51.606;7.624;2022-12-18T08:24:43;19.13;;;12.77;;
11500;SDS011;5807;51.606;7.624;2022-12-18T08:29:40;20.10;;;13.60;;
11500;SDS011;5807;51.606;7.624;2022-12-18T08:32:07;24.83;;;15.67;;
11500;SDS011;5807;51.606;7.624;2022-12-18T08:34:35;20.50;;;14.83;;
11500;SDS011;5807;51.606;7.624;2022-12-18T08:37:03;21.57;;;15.57;;
11500;SDS011;5807;51.606;7.624;2022-12-18T08:39:29;20.07;;;13.00;;
11500;SDS011;5807;51.606;7.624;2022-12-18T08:41:56;21.20;;;15.00;;
11500;SDS011;5807;51.606;7.624;2022-12-18T08:44:41;22.70;;;14.70;;
11500;SDS011;5807;51.606;7.624;2022-12-18T08:47:07;14.77;;;12.17;;
11500;SDS011;5807;51.606;7.624;2022-12-18T08:49:36;20.10;;;12.70;;
11500;SDS011;5807;51.606;7.624;2022-12-18T08:52:03;26.00;;;15.03;;
11500;SDS011;5807;51.606;7.624;2022-12-18T08:54:30;22.27;;;15.20;;
11500;SDS011;5807;51.606;7.624;2022-12-18T08:56:57;22.63;;;13.97;;
11500;SDS011;5807;51.606;7.624;2022-12-18T08:59:23;22.27;;;13.37;;
11500;SDS011;5807;51.606;7.624;2022-12-18T09:01:53;23.93;;;14.00;;
11500;SDS011;5807;51.606;7.624;2022-12-18T09:04:20;18.23;;;11.60;;
11500;SDS011;5807;51.606;7.624;2022-12-18T09:06:48;20.70;;;12.40;;
11500;SDS011;5807;51.606;7.624;2022-12-18T09:09:15;19.27;;;12.10;;
11500;SDS011;5807;51.606;7.624;2022-12-18T09:11:42;27.50;;;14.53;;
11500;SDS011;5807;51.606;7.624;2022-12-18T09:14:09;22.27;;;13.03;;
11500;SDS011;5807;51.606;7.624;2022-12-18T09:16:36;20.40;;;11.63;;
11500;SDS011;5807;51.606;7.624;2022-12-18T09:19:04;21.00;;;13.70;;
11500;SDS011;5807;51.606;7.624;2022-12-18T09:21:32;19.37;;;11.67;;
11500;SDS011;5807;51.606;7.624;2022-12-18T09:24:01;15.97;;;11.00;;
11500;SDS011;5807;51.606;7.624;2022-12-18T09:26:28;11.43;;;9.70;;
11500;SDS011;5807;51.606;7.624;2022-12-18T09:28:55;16.20;;;10.97;;
11500;SDS011;5807;51.606;7.624;2022-12-18T09:31:23;14.17;;;9.97;;
11500;SDS011;5807;51.606;7.624;2022-12-18T09:33:50;14.20;;;9.63;;
11500;SDS011;5807;51.606;7.624;2022-12-18T09:36:17;16.47;;;10.80;;
11500;SDS011;5807;51.606;7.624;2022-12-18T09:38:44;13.77;;;9.23;;
11500;SDS011;5807;51.606;7.624;2022-12-18T09:41:19;11.97;;;9.40;;
11500;SDS011;5807;51.606;7.624;2022-12-18T09:43:58;13.20;;;9.67;;
11500;SDS011;5807;51.606;7.624;2022-12-18T09:46:29;15.43;;;9.30;;
11500;SDS011;5807;51.606;7.624;2022-12-18T09:48:59;14.90;;;9.70;;
11500;SDS011;5807;51.606;7.624;2022-12-18T09:51:31;13.47;;;9.30;;
11500;SDS011;5807;51.606;7.624;2022-12-18T09:54:01;16.33;;;10.47;;
11500;SDS011;5807;51.606;7.624;2022-12-18T09:56:35;14.87;;;10.80;;
11500;SDS011;5807;51.606;7.624;2022-12-18T09:59:05;16.47;;;11.37;;
11500;SDS011;5807;51.606;7.624;2022-12-18T10:01:32;14.53;;;10.07;;
11500;SDS011;5807;51.606;7.624;2022-12-18T10:03:59;16.70;;;11.60;;
11500;SDS011;5807;51.606;7.624;2022-12-18T10:09:37;11.67;;;7.83;;
11500;SDS011;5807;51.606;7.624;2022-12-18T10:12:08;10.27;;;8.77;;
11500;SDS011;5807;51.606;7.624;2022-12-18T10:14:42;10.53;;;8.17;;
11500;SDS011;5807;51.606;7.624;2022-12-18T10:17:17;12.67;;;8.90;;
11500;SDS011;5807;51.606;7.624;2022-12-18T10:19:53;11.97;;;8.80;;
11500;SDS011;5807;51.606;7.624;2022-12-18T10:22:24;12.40;;;8.47;;
11500;SDS011;5807;51.606;7.624;2022-12-18T10:25:03;12.97;;;8.73;;
11500;SDS011;5807;51.606;7.624;2022-12-18T10:27:40;9.27;;;8.17;;
11500;SDS011;5807;51.606;7.624;2022-12-18T10:30:12;12.07;;;8.70;;
11500;SDS011;5807;51.606;7.624;2022-12-18T10:32:40;11.90;;;8.27;;
11500;SDS011;5807;51.606;7.624;2022-12-18T10:35:07;13.63;;;9.17;;
11500;SDS011;5807;51.606;7.624;2022-12-18T10:37:58;12.30;;;9.60;;
11500;SDS011;5807;51.606;7.624;2022-12-18T10:40:27;18.27;;;10.03;;
11500;SDS011;5807;51.606;7.624;2022-12-18T10:43:09;12.70;;;9.23;;
11500;SDS011;5807;51.606;7.624;2022-12-18T10:45:39;17.07;;;10.67;;
11500;SDS011;5807;51.606;7.624;2022-12-18T10:48:17;15.63;;;11.40;;
11500;SDS011;5807;51.606;7.624;2022-12-18T10:50:46;15.27;;;11.03;;
11500;SDS011;5807;51.606;7.624;2022-12-18T10:53:18;14.77;;;9.90;;
11500;SDS011;5807;51.606;7.624;2022-12-18T10:55:47;14.20;;;11.00;;
11500;SDS011;5807;51.606;7.624;2022-12-18T10:58:22;14.13;;;11.00;;
11500;SDS011;5807;51.606;7.624;2022-12-18T11:01:07;13.83;;;10.47;;
11500;SDS011;5807;51.606;7.624;2022-12-18T11:03:36;17.00;;;10.63;;
11500;SDS011;5807;51.606;7.624;2022-12-18T11:06:15;13.57;;;10.63;;
11500;SDS011;5807;51.606;7.624;2022-12-18T11:08:43;14.47;;;9.80;;
11500;SDS011;5807;51.606;7.624;2022-12-18T11:11:19;11.47;;;9.57;;
11500;SDS011;5807;51.606;7.624;2022-12-18T11:13:54;13.47;;;9.73;;
11500;SDS011;5807;51.606;7.624;2022-12-18T11:16:25;11.57;;;9.27;;
11500;SDS011;5807;51.606;7.624;2022-12-18T11:18:53;12.03;;;8.93;;
11500;SDS011;5807;51.606;7.624;2022-12-18T11:21:21;12.47;;;9.20;;
11500;SDS011;5807;51.606;7.624;2022-12-18T11:23:49;12.87;;;9.97;;
11500;SDS011;5807;51.606;7.624;2022-12-18T11:26:17;15.27;;;11.30;;
11500;SDS011;5807;51.606;7.624;2022-12-18T11:28:46;13.37;;;9.83;;
11500;SDS011;5807;51.606;7.624;2022-12-18T11:31:20;11.27;;;9.93;;
11500;SDS011;5807;51.606;7.624;2022-12-18T11:36:43;17.37;;;12.10;;
11500;SDS011;5807;51.606;7.624;2022-12-18T11:39:17;14.83;;;11.47;;
11500;SDS011;5807;51.606;7.624;2022-12-18T11:41:47;17.17;;;11.47;;
11500;SDS011;5807;51.606;7.624;2022-12-18T11:44:38;11.97;;;9.20;;
11500;SDS011;5807;51.606;7.624;2022-12-18T11:47:15;11.10;;;9.20;;
11500;SDS011;5807;51.606;7.624;2022-12-18T11:49:50;11.77;;;9.13;;
11500;SDS011;5807;51.606;7.624;2022-12-18T11:52:18;12.47;;;9.40;;
11500;SDS011;5807;51.606;7.624;2022-12-18T11:54:50;12.40;;;10.07;;
11500;SDS011;5807;51.606;7.624;2022-12-18T11:57:19;15.37;;;10.60;;
11500;SDS011;5807;51.606;7.624;2022-12-18T12:00:00;13.53;;;9.87;;
11500;SDS011;5807;51.606;7.624;2022-12-18T12:02:38;14.33;;;10.87;;
11500;SDS011;5807;51.606;7.624;2022-12-18T12:05:25;13.67;;;10.10;;
11500;SDS011;5807;51.606;7.624;2022-12-18T12:08:00;13.03;;;10.03;;
11500;SDS011;5807;51.606;7.624;2022-12-18T12:10:36;11.13;;;8.97;;
11500;SDS011;5807;51.606;7.624;2022-12-18T12:13:15;11.90;;;9.40;;
11500;SDS011;5807;51.606;7.624;2022-12-18T12:15:52;12.03;;;10.03;;
11500;SDS011;5807;51.606;7.624;2022-12-18T12:18:33;13.53;;;10.00;;
11500;SDS011;5807;51.606;7.624;2022-12-18T12:21:08;10.77;;;9.17;;
11500;SDS011;5807;51.606;7.624;2022-12-18T12:23:44;14.00;;;9.03;;
11500;SDS011;5807;51.606;7.624;2022-12-18T12:26:17;11.83;;;9.13;;
11500;SDS011;5807;51.606;7.624;2022-12-18T12:28:54;11.37;;;9.70;;
11500;SDS011;5807;51.606;7.624;2022-12-18T12:31:39;10.97;;;8.80;;
11500;SDS011;5807;51.606;7.624;2022-12-18T12:34:20;11.70;;;9.30;;
11500;SDS011;5807;51.606;7.624;2022-12-18T12:36:59;10.93;;;8.63;;
11500;SDS011;5807;51.606;7.624;2022-12-18T12:39:36;12.57;;;9.60;;
11500;SDS011;5807;51.606;7.624;2022-12-18T12:42:05;11.27;;;8.90;;
11500;SDS011;5807;51.606;7.624;2022-12-18T12:44:58;12.37;;;10.30;;
11500;SDS011;5807;51.606;7.624;2022-12-18T12:47:30;15.90;;;9.67;;
11500;SDS011;5807;51.606;7.624;2022-12-18T12:50:13;11.03;;;9.47;;
11500;SDS011;5807;51.606;7.624;2022-12-18T12:52:53;11.93;;;9.67;;
11500;SDS011;5807;51.606;7.624;2022-12-18T12:55:23;12.63;;;9.77;;
11500;SDS011;5807;51.606;7.624;2022-12-18T12:57:55;13.53;;;9.57;;
11500;SDS011;5807;51.606;7.624;2022-12-18T13:00:30;11.47;;;8.53;;
11500;SDS011;5807;51.606;7.624;2022-12-18T13:03:07;13.60;;;9.63;;
11500;SDS011;5807;51.606;7.624;2022-12-18T13:05:43;15.17;;;11.13;;
11500;SDS011;5807;51.606;7.624;2022-12-18T13:08:22;12.53;;;9.63;;
11500;SDS011;5807;51.606;7.624;2022-12-18T13:10:51;11.07;;;9.37;;
11500;SDS011;5807;51.606;7.624;2022-12-18T13:13:47;15.33;;;10.23;;
11500;SDS011;5807;51.606;7.624;2022-12-18T13:16:18;11.37;;;10.23;;
11500;SDS011;5807;51.606;7.624;2022-12-18T13:19:01;13.63;;;10.33;;
11500;SDS011;5807;51.606;7.624;2022-12-18T13:21:40;12.83;;;10.57;;
11500;SDS011;5807;51.606;7.624;2022-12-18T13:26:51;12.07;;;10.23;;
11500;SDS011;5807;51.606;7.624;2022-12-18T13:32:19;13.07;;;10.60;;
11500;SDS011;5807;51.606;7.624;2022-12-18T13:34:46;15.10;;;11.23;;
11500;SDS011;5807;51.606;7.624;2022-12-18T13:43:31;17.63;;;11.07;;
11500;SDS011;5807;51.606;7.624;2022-12-18T13:48:55;18.00;;;11.83;;
11500;SDS011;5807;51.606;7.624;2022-12-18T13:51:28;15.67;;;11.87;;
11500;SDS011;5807;51.606;7.624;2022-12-18T13:53:59;13.47;;;11.43;;
11500;SDS011;5807;51.606;7.624;2022-12-18T13:56:30;15.50;;;12.63;;
11500;SDS011;5807;51.606;7.624;2022-12-18T13:59:12;16.40;;;12.17;;
11500;SDS011;5807;51.606;7.624;2022-12-18T14:02:00;19.03;;;12.70;;
11500;SDS011;5807;51.606;7.624;2022-12-18T14:04:32;13.47;;;10.97;;
11500;SDS011;5807;51.606;7.624;2022-12-18T14:07:01;19.20;;;11.97;;
11500;SDS011;5807;51.606;7.624;2022-12-18T14:09:35;16.57;;;11.10;;
11500;SDS011;5807;51.606;7.624;2022-12-18T14:12:11;14.23;;;11.97;;
11500;SDS011;5807;51.606;7.624;2022-12-18T14:17:52;15.57;;;12.20;;
11500;SDS011;5807;51.606;7.624;2022-12-18T14:20:21;14.80;;;11.53;;
11500;SDS011;5807;51.606;7.624;2022-12-18T14:22:50;15.33;;;11.50;;
11500;SDS011;5807;51.606;7.624;2022-12-18T14:25:19;17.13;;;12.43;;
11500;SDS011;5807;51.606;7.624;2022-12-18T14:27:50;16.53;;;12.47;;
11500;SDS011;5807;51.606;7.624;2022-12-18T14:30:25;15.53;;;12.43;;
11500;SDS011;5807;51.606;7.624;2022-12-18T14:33:00;16.87;;;12.23;;
11500;SDS011;5807;51.606;7.624;2022-12-18T14:38:36;15.33;;;11.23;;
11500;SDS011;5807;51.606;7.624;2022-12-18T14:41:05;13.33;;;10.57;;
11500;SDS011;5807;51.606;7.624;2022-12-18T14:46:29;14.60;;;10.60;;
11500;SDS011;5807;51.606;7.624;2022-12-18T14:48:59;17.47;;;11.10;;
11500;SDS011;5807;51.606;7.624;2022-12-18T14:51:28;17.47;;;12.07;;
11500;SDS011;5807;51.606;7.624;2022-12-18T14:53:57;20.47;;;14.13;;
11500;SDS011;5807;51.606;7.624;2022-12-18T14:56:28;20.10;;;14.20;;
11500;SDS011;5807;51.606;7.624;2022-12-18T14:58:58;24.17;;;15.97;;
11500;SDS011;5807;51.606;7.624;2022-12-18T15:01:29;24.23;;;15.97;;
11500;SDS011;5807;51.606;7.624;2022-12-18T15:03:58;27.10;;;17.80;;
11500;SDS011;5807;51.606;7.624;2022-12-18T15:06:30;28.57;;;17.80;;
11500;SDS011;5807;51.606;7.624;2022-12-18T15:09:00;22.23;;;15.33;;
11500;SDS011;5807;51.606;7.624;2022-12-18T15:14:22;20.00;;;12.63;;
11500;SDS011;5807;51.606;7.624;2022-12-18T15:16:51;21.40;;;14.33;;
11500;SDS011;5807;51.606;7.624;2022-12-18T15:19:19;20.00;;;12.50;;
11500;SDS011;5807;51.606;7.624;2022-12-18T15:21:47;18.80;;;12.20;;
11500;SDS011;5807;51.606;7.624;2022-12-18T15:24:16;17.30;;;12.20;;
11500;SDS011;5807;51.606;7.624;2022-12-18T15:26:46;15.73;;;11.47;;
11500;SDS011;5807;51.606;7.624;2022-12-18T15:29:18;50.13;;;29.00;;
11500;SDS011;5807;51.606;7.624;2022-12-18T15:31:57;59.90;;;34.27;;
11500;SDS011;5807;51.606;7.624;2022-12-18T15:34:31;34.40;;;21.33;;